This is the latest recevied weather packets stored in our database for station/object K7CTM. If no packets are shown the sender has not sent any weather packets the latest 10 day(s).
| Time | Temp. | Humidity | Pressure | Rain* | Wind** | Luminosity | Snow |
|---|---|---|---|---|---|---|---|
| 1777436101 | 5° C | 73% | 1029.2 hPa | 0 mm | - | 0 W/m² | - |
| 1777435799 | 5.56° C | 71% | 1029.1 hPa | 0 mm | - | 0 W/m² | - |
| 1777435190 | 5.56° C | 72% | 1029.2 hPa | 0 mm | - | 0 W/m² | - |
| 1777433675 | 5° C | 74% | 1029 hPa | 0 mm | - | 0 W/m² | - |
| 1777433377 | 5° C | 75% | 1028.9 hPa | 0 mm | - | 0 W/m² | - |
| 1777432458 | 5.56° C | 72% | 1028.9 hPa | 0 mm | - | 0 W/m² | - |
| 1777431853 | 6.11° C | 70% | 1028.7 hPa | 0 mm | - | 0 W/m² | - |
| 1777430942 | 6.67° C | 68% | 1028.3 hPa | 0 mm | - | 0 W/m² | - |
| 1777430334 | 6.11° C | 69% | 1028.1 hPa | 0 mm | - | 0 W/m² | - |
| 1777430029 | 6.67° C | 69% | 1028.3 hPa | 0 mm | - | 1 W/m² | - |
| 1777429422 | 6.67° C | 66% | 1028 hPa | 0 mm | - | 3 W/m² | - |
| 1777428510 | 7.22° C | 66% | 1028 hPa | 0 mm | - | 9 W/m² | - |
| 1777427295 | 7.78° C | 65% | 1028.2 hPa | 0 mm | - | 17 W/m² | - |
| 1777426081 | 7.22° C | 65% | 1027.9 hPa | 0 mm | - | 24 W/m² | - |
| 1777425777 | 7.22° C | 67% | 1028.1 hPa | 0 mm | - | 23 W/m² | - |
| 1777424560 | 7.22° C | 66% | 1027.4 hPa | 0 mm | - | 44 W/m² | - |
| 1777423649 | 7.78° C | 66% | 1027.1 hPa | 0 mm | - | 67 W/m² | - |
| 1777423039 | 8.89° C | 58% | 1026.9 hPa | 0 mm | - | 77 W/m² | - |
| 1777422736 | 8.89° C | 57% | 1027.2 hPa | 0 mm | - | 100 W/m² | - |
| 1777422131 | 8.89° C | 58% | 1027.1 hPa | 0 mm | - | 57 W/m² | - |
| 1777421830 | 8.89° C | 58% | 1026.8 hPa | 0 mm | - | 103 W/m² | - |
* Rain latest hour (hover to see other rain measurements)
** Current wind speed in m/s (hover to see current wind gust speed)